sensor_id;sensor_type;location;lat;lon;timestamp;P1;durP1;ratioP1;P2;durP2;ratioP2
47764;SDS011;33529;49.242;8.670;2022-09-17T00:00:37;1.50;;;0.80;;
47764;SDS011;33529;49.242;8.670;2022-09-17T00:03:04;1.33;;;0.60;;
47764;SDS011;33529;49.242;8.670;2022-09-17T00:05:32;1.52;;;0.77;;
47764;SDS011;33529;49.242;8.670;2022-09-17T00:07:59;0.77;;;0.57;;
47764;SDS011;33529;49.242;8.670;2022-09-17T00:10:26;1.05;;;0.60;;
47764;SDS011;33529;49.242;8.670;2022-09-17T00:12:53;0.45;;;0.40;;
47764;SDS011;33529;49.242;8.670;2022-09-17T00:15:20;0.52;;;0.30;;
47764;SDS011;33529;49.242;8.670;2022-09-17T00:17:47;0.82;;;0.50;;
47764;SDS011;33529;49.242;8.670;2022-09-17T00:20:18;0.98;;;0.43;;
47764;SDS011;33529;49.242;8.670;2022-09-17T00:22:45;0.77;;;0.45;;
47764;SDS011;33529;49.242;8.670;2022-09-17T00:25:12;0.60;;;0.50;;
47764;SDS011;33529;49.242;8.670;2022-09-17T00:27:39;0.50;;;0.35;;
47764;SDS011;33529;49.242;8.670;2022-09-17T00:30:06;0.77;;;0.47;;
47764;SDS011;33529;49.242;8.670;2022-09-17T00:32:33;0.65;;;0.40;;
47764;SDS011;33529;49.242;8.670;2022-09-17T00:35:00;1.27;;;0.45;;
47764;SDS011;33529;49.242;8.670;2022-09-17T00:37:27;0.40;;;0.40;;
47764;SDS011;33529;49.242;8.670;2022-09-17T00:39:53;0.80;;;0.50;;
47764;SDS011;33529;49.242;8.670;2022-09-17T01:08:58;0.63;;;0.40;;
47764;SDS011;33529;49.242;8.670;2022-09-17T01:17:58;0.98;;;0.50;;
47764;SDS011;33529;49.242;8.670;2022-09-17T01:23:08;0.38;;;0.30;;
47764;SDS011;33529;49.242;8.670;2022-09-17T01:31:40;1.85;;;0.50;;
47764;SDS011;33529;49.242;8.670;2022-09-17T01:34:41;0.85;;;0.50;;
47764;SDS011;33529;49.242;8.670;2022-09-17T01:37:30;0.43;;;0.43;;
47764;SDS011;33529;49.242;8.670;2022-09-17T01:42:52;0.30;;;0.30;;
47764;SDS011;33529;49.242;8.670;2022-09-17T01:45:42;0.57;;;0.43;;
47764;SDS011;33529;49.242;8.670;2022-09-17T01:48:16;1.13;;;0.50;;
47764;SDS011;33529;49.242;8.670;2022-09-17T01:51:06;0.40;;;0.30;;
47764;SDS011;33529;49.242;8.670;2022-09-17T01:53:52;1.00;;;0.40;;
47764;SDS011;33529;49.242;8.670;2022-09-17T01:56:33;0.43;;;0.30;;
47764;SDS011;33529;49.242;8.670;2022-09-17T01:59:12;0.52;;;0.50;;
47764;SDS011;33529;49.242;8.670;2022-09-17T02:01:45;0.47;;;0.35;;
47764;SDS011;33529;49.242;8.670;2022-09-17T02:04:25;0.90;;;0.50;;
47764;SDS011;33529;49.242;8.670;2022-09-17T02:06:57;0.93;;;0.50;;
47764;SDS011;33529;49.242;8.670;2022-09-17T02:09:34;0.45;;;0.45;;
47764;SDS011;33529;49.242;8.670;2022-09-17T02:12:09;0.55;;;0.30;;
47764;SDS011;33529;49.242;8.670;2022-09-17T02:14:46;0.93;;;0.47;;
47764;SDS011;33529;49.242;8.670;2022-09-17T02:17:36;0.30;;;0.30;;
47764;SDS011;33529;49.242;8.670;2022-09-17T02:20:16;0.95;;;0.38;;
47764;SDS011;33529;49.242;8.670;2022-09-17T02:25:25;0.95;;;0.45;;
47764;SDS011;33529;49.242;8.670;2022-09-17T02:28:12;0.43;;;0.30;;
47764;SDS011;33529;49.242;8.670;2022-09-17T02:30:56;1.00;;;0.52;;
47764;SDS011;33529;49.242;8.670;2022-09-17T02:33:23;0.77;;;0.50;;
47764;SDS011;33529;49.242;8.670;2022-09-17T02:35:51;0.40;;;0.40;;
47764;SDS011;33529;49.242;8.670;2022-09-17T02:38:21;0.98;;;0.57;;
47764;SDS011;33529;49.242;8.670;2022-09-17T02:40:53;0.80;;;0.55;;
47764;SDS011;33529;49.242;8.670;2022-09-17T02:49:23;0.45;;;0.45;;
47764;SDS011;33529;49.242;8.670;2022-09-17T03:00:40;1.08;;;0.73;;
47764;SDS011;33529;49.242;8.670;2022-09-17T03:05:47;0.50;;;0.50;;
47764;SDS011;33529;49.242;8.670;2022-09-17T03:08:15;1.67;;;0.82;;
47764;SDS011;33529;49.242;8.670;2022-09-17T03:10:45;0.82;;;0.50;;
47764;SDS011;33529;49.242;8.670;2022-09-17T03:13:14;0.68;;;0.38;;
47764;SDS011;33529;49.242;8.670;2022-09-17T03:15:41;0.70;;;0.60;;
47764;SDS011;33529;49.242;8.670;2022-09-17T03:18:08;0.60;;;0.52;;
47764;SDS011;33529;49.242;8.670;2022-09-17T03:20:35;0.85;;;0.55;;
47764;SDS011;33529;49.242;8.670;2022-09-17T03:23:02;1.02;;;0.60;;
47764;SDS011;33529;49.242;8.670;2022-09-17T03:25:29;0.65;;;0.47;;
47764;SDS011;33529;49.242;8.670;2022-09-17T03:27:55;0.57;;;0.30;;
47764;SDS011;33529;49.242;8.670;2022-09-17T03:30:22;0.30;;;0.30;;
47764;SDS011;33529;49.242;8.670;2022-09-17T03:32:49;0.55;;;0.40;;
47764;SDS011;33529;49.242;8.670;2022-09-17T03:35:16;1.50;;;0.60;;
47764;SDS011;33529;49.242;8.670;2022-09-17T03:37:43;1.35;;;0.60;;
47764;SDS011;33529;49.242;8.670;2022-09-17T03:40:10;0.85;;;0.47;;
47764;SDS011;33529;49.242;8.670;2022-09-17T03:42:37;1.05;;;0.60;;
47764;SDS011;33529;49.242;8.670;2022-09-17T03:45:04;1.00;;;0.70;;
47764;SDS011;33529;49.242;8.670;2022-09-17T03:47:35;1.17;;;0.70;;
47764;SDS011;33529;49.242;8.670;2022-09-17T03:50:03;0.88;;;0.60;;
47764;SDS011;33529;49.242;8.670;2022-09-17T03:52:31;0.85;;;0.60;;
47764;SDS011;33529;49.242;8.670;2022-09-17T03:54:58;1.40;;;0.68;;
47764;SDS011;33529;49.242;8.670;2022-09-17T03:57:25;0.80;;;0.50;;
47764;SDS011;33529;49.242;8.670;2022-09-17T03:59:52;1.33;;;0.80;;
47764;SDS011;33529;49.242;8.670;2022-09-17T04:02:19;1.02;;;0.70;;
47764;SDS011;33529;49.242;8.670;2022-09-17T04:04:46;1.85;;;0.73;;
47764;SDS011;33529;49.242;8.670;2022-09-17T04:07:13;1.83;;;1.05;;
47764;SDS011;33529;49.242;8.670;2022-09-17T04:09:40;0.85;;;0.60;;
47764;SDS011;33529;49.242;8.670;2022-09-17T04:12:07;1.30;;;0.70;;
47764;SDS011;33529;49.242;8.670;2022-09-17T04:14:34;1.20;;;0.50;;
47764;SDS011;33529;49.242;8.670;2022-09-17T04:17:01;1.58;;;0.80;;
47764;SDS011;33529;49.242;8.670;2022-09-17T04:19:28;0.93;;;0.50;;
47764;SDS011;33529;49.242;8.670;2022-09-17T04:21:55;1.23;;;0.60;;
47764;SDS011;33529;49.242;8.670;2022-09-17T04:24:22;1.70;;;0.80;;
47764;SDS011;33529;49.242;8.670;2022-09-17T04:26:48;0.60;;;0.50;;
47764;SDS011;33529;49.242;8.670;2022-09-17T04:29:15;1.33;;;0.60;;
47764;SDS011;33529;49.242;8.670;2022-09-17T04:31:48;0.52;;;0.50;;
47764;SDS011;33529;49.242;8.670;2022-09-17T04:34:15;0.90;;;0.52;;
47764;SDS011;33529;49.242;8.670;2022-09-17T04:36:42;1.15;;;0.60;;
47764;SDS011;33529;49.242;8.670;2022-09-17T04:39:09;2.00;;;0.82;;
47764;SDS011;33529;49.242;8.670;2022-09-17T04:41:36;1.15;;;0.68;;
47764;SDS011;33529;49.242;8.670;2022-09-17T04:44:02;0.70;;;0.60;;
47764;SDS011;33529;49.242;8.670;2022-09-17T04:46:29;1.23;;;0.70;;
47764;SDS011;33529;49.242;8.670;2022-09-17T04:48:56;0.85;;;0.60;;
47764;SDS011;33529;49.242;8.670;2022-09-17T04:51:23;1.02;;;0.60;;
47764;SDS011;33529;49.242;8.670;2022-09-17T04:53:50;1.95;;;0.70;;
47764;SDS011;33529;49.242;8.670;2022-09-17T04:56:17;1.15;;;0.60;;
47764;SDS011;33529;49.242;8.670;2022-09-17T04:58:44;1.15;;;0.70;;
47764;SDS011;33529;49.242;8.670;2022-09-17T05:01:11;1.13;;;0.65;;
47764;SDS011;33529;49.242;8.670;2022-09-17T05:03:40;1.70;;;0.60;;
47764;SDS011;33529;49.242;8.670;2022-09-17T05:06:08;1.27;;;0.70;;
47764;SDS011;33529;49.242;8.670;2022-09-17T05:08:35;0.57;;;0.45;;
47764;SDS011;33529;49.242;8.670;2022-09-17T05:11:02;1.55;;;0.63;;
47764;SDS011;33529;49.242;8.670;2022-09-17T05:13:30;1.13;;;0.70;;
47764;SDS011;33529;49.242;8.670;2022-09-17T05:15:56;1.35;;;0.60;;
47764;SDS011;33529;49.242;8.670;2022-09-17T05:18:23;0.75;;;0.55;;
47764;SDS011;33529;49.242;8.670;2022-09-17T05:20:51;1.98;;;0.90;;
47764;SDS011;33529;49.242;8.670;2022-09-17T05:23:18;0.80;;;0.60;;
47764;SDS011;33529;49.242;8.670;2022-09-17T05:25:45;4.03;;;0.88;;
47764;SDS011;33529;49.242;8.670;2022-09-17T05:28:12;1.30;;;1.00;;
47764;SDS011;33529;49.242;8.670;2022-09-17T05:30:39;1.75;;;0.93;;
47764;SDS011;33529;49.242;8.670;2022-09-17T05:33:06;0.73;;;0.60;;
47764;SDS011;33529;49.242;8.670;2022-09-17T05:35:33;1.55;;;0.75;;
47764;SDS011;33529;49.242;8.670;2022-09-17T05:38:04;2.13;;;1.35;;
47764;SDS011;33529;49.242;8.670;2022-09-17T05:40:32;1.35;;;1.20;;
47764;SDS011;33529;49.242;8.670;2022-09-17T05:43:01;1.85;;;0.70;;
47764;SDS011;33529;49.242;8.670;2022-09-17T05:45:30;1.05;;;0.65;;
47764;SDS011;33529;49.242;8.670;2022-09-17T05:47:59;1.00;;;0.70;;
47764;SDS011;33529;49.242;8.670;2022-09-17T05:50:27;1.20;;;0.80;;
47764;SDS011;33529;49.242;8.670;2022-09-17T05:52:55;1.67;;;1.05;;
47764;SDS011;33529;49.242;8.670;2022-09-17T05:55:22;0.70;;;0.60;;
47764;SDS011;33529;49.242;8.670;2022-09-17T05:57:49;2.08;;;1.05;;
47764;SDS011;33529;49.242;8.670;2022-09-17T06:00:16;1.58;;;1.05;;
47764;SDS011;33529;49.242;8.670;2022-09-17T06:02:44;1.70;;;1.00;;
47764;SDS011;33529;49.242;8.670;2022-09-17T06:05:11;2.20;;;1.20;;
47764;SDS011;33529;49.242;8.670;2022-09-17T06:07:38;1.70;;;0.95;;
47764;SDS011;33529;49.242;8.670;2022-09-17T06:10:05;1.75;;;0.98;;
47764;SDS011;33529;49.242;8.670;2022-09-17T06:12:33;2.00;;;1.00;;
47764;SDS011;33529;49.242;8.670;2022-09-17T06:15:03;1.80;;;1.10;;
47764;SDS011;33529;49.242;8.670;2022-09-17T06:17:33;2.38;;;1.10;;
47764;SDS011;33529;49.242;8.670;2022-09-17T06:20:02;1.10;;;0.80;;
47764;SDS011;33529;49.242;8.670;2022-09-17T06:22:30;1.65;;;1.00;;
47764;SDS011;33529;49.242;8.670;2022-09-17T06:24:57;1.52;;;0.90;;
47764;SDS011;33529;49.242;8.670;2022-09-17T06:27:32;2.20;;;1.10;;
47764;SDS011;33529;49.242;8.670;2022-09-17T06:30:00;1.63;;;0.90;;
47764;SDS011;33529;49.242;8.670;2022-09-17T06:32:28;1.75;;;0.73;;
47764;SDS011;33529;49.242;8.670;2022-09-17T06:34:55;1.55;;;0.85;;
47764;SDS011;33529;49.242;8.670;2022-09-17T06:37:28;1.35;;;1.00;;
47764;SDS011;33529;49.242;8.670;2022-09-17T06:39:56;1.20;;;0.88;;
47764;SDS011;33529;49.242;8.670;2022-09-17T06:42:27;1.83;;;1.15;;
47764;SDS011;33529;49.242;8.670;2022-09-17T06:44:54;2.10;;;1.30;;
47764;SDS011;33529;49.242;8.670;2022-09-17T06:47:24;2.72;;;1.30;;
47764;SDS011;33529;49.242;8.670;2022-09-17T06:49:52;2.65;;;1.33;;
47764;SDS011;33529;49.242;8.670;2022-09-17T06:52:19;1.92;;;1.02;;
47764;SDS011;33529;49.242;8.670;2022-09-17T06:54:46;2.83;;;1.45;;
47764;SDS011;33529;49.242;8.670;2022-09-17T06:57:13;1.95;;;1.27;;
47764;SDS011;33529;49.242;8.670;2022-09-17T06:59:40;2.53;;;1.10;;
47764;SDS011;33529;49.242;8.670;2022-09-17T07:02:08;1.83;;;1.08;;
47764;SDS011;33529;49.242;8.670;2022-09-17T07:04:35;1.75;;;1.08;;
47764;SDS011;33529;49.242;8.670;2022-09-17T07:07:02;2.90;;;1.10;;
47764;SDS011;33529;49.242;8.670;2022-09-17T07:09:30;2.47;;;0.95;;
47764;SDS011;33529;49.242;8.670;2022-09-17T07:11:57;2.70;;;1.23;;
47764;SDS011;33529;49.242;8.670;2022-09-17T07:14:23;1.80;;;1.20;;
47764;SDS011;33529;49.242;8.670;2022-09-17T07:16:51;1.65;;;1.27;;
47764;SDS011;33529;49.242;8.670;2022-09-17T07:19:17;1.00;;;0.80;;
47764;SDS011;33529;49.242;8.670;2022-09-17T07:21:46;2.38;;;1.30;;
47764;SDS011;33529;49.242;8.670;2022-09-17T07:24:14;1.88;;;1.17;;
47764;SDS011;33529;49.242;8.670;2022-09-17T07:26:40;2.08;;;1.13;;
47764;SDS011;33529;49.242;8.670;2022-09-17T07:29:07;2.10;;;1.10;;
47764;SDS011;33529;49.242;8.670;2022-09-17T07:31:34;1.80;;;1.00;;
47764;SDS011;33529;49.242;8.670;2022-09-17T07:34:02;3.75;;;1.30;;
47764;SDS011;33529;49.242;8.670;2022-09-17T07:36:29;3.22;;;1.40;;
47764;SDS011;33529;49.242;8.670;2022-09-17T07:38:56;2.65;;;1.20;;
47764;SDS011;33529;49.242;8.670;2022-09-17T07:41:22;2.45;;;1.00;;
47764;SDS011;33529;49.242;8.670;2022-09-17T07:43:50;2.08;;;1.20;;
47764;SDS011;33529;49.242;8.670;2022-09-17T07:46:19;2.03;;;1.02;;
47764;SDS011;33529;49.242;8.670;2022-09-17T07:48:47;1.77;;;1.05;;
47764;SDS011;33529;49.242;8.670;2022-09-17T07:51:15;3.53;;;1.20;;
47764;SDS011;33529;49.242;8.670;2022-09-17T07:53:49;2.55;;;0.93;;
47764;SDS011;33529;49.242;8.670;2022-09-17T07:56:25;1.45;;;0.98;;
47764;SDS011;33529;49.242;8.670;2022-09-17T07:58:53;1.38;;;0.90;;
47764;SDS011;33529;49.242;8.670;2022-09-17T08:01:20;4.03;;;1.15;;
47764;SDS011;33529;49.242;8.670;2022-09-17T08:03:48;1.38;;;0.93;;
47764;SDS011;33529;49.242;8.670;2022-09-17T08:06:18;1.55;;;1.00;;
47764;SDS011;33529;49.242;8.670;2022-09-17T08:08:46;1.35;;;1.10;;
47764;SDS011;33529;49.242;8.670;2022-09-17T08:11:14;1.50;;;1.05;;
47764;SDS011;33529;49.242;8.670;2022-09-17T08:14:05;1.30;;;0.90;;
47764;SDS011;33529;49.242;8.670;2022-09-17T08:16:32;2.28;;;1.00;;
47764;SDS011;33529;49.242;8.670;2022-09-17T08:18:59;2.00;;;1.10;;
47764;SDS011;33529;49.242;8.670;2022-09-17T08:21:26;1.42;;;0.82;;
47764;SDS011;33529;49.242;8.670;2022-09-17T08:23:53;1.70;;;1.02;;
47764;SDS011;33529;49.242;8.670;2022-09-17T08:26:20;1.70;;;1.08;;
47764;SDS011;33529;49.242;8.670;2022-09-17T08:28:49;1.27;;;0.90;;
47764;SDS011;33529;49.242;8.670;2022-09-17T08:31:20;1.90;;;1.13;;
47764;SDS011;33529;49.242;8.670;2022-09-17T08:33:49;1.40;;;0.80;;
47764;SDS011;33529;49.242;8.670;2022-09-17T08:36:16;1.52;;;1.00;;
47764;SDS011;33529;49.242;8.670;2022-09-17T08:38:44;1.63;;;0.95;;
47764;SDS011;33529;49.242;8.670;2022-09-17T08:41:16;1.40;;;0.85;;
47764;SDS011;33529;49.242;8.670;2022-09-17T08:46:33;1.30;;;1.00;;
47764;SDS011;33529;49.242;8.670;2022-09-17T08:49:11;1.75;;;1.05;;
47764;SDS011;33529;49.242;8.670;2022-09-17T09:00:21;1.15;;;0.73;;
47764;SDS011;33529;49.242;8.670;2022-09-17T09:02:55;1.52;;;0.77;;
47764;SDS011;33529;49.242;8.670;2022-09-17T09:05:44;1.60;;;0.73;;
47764;SDS011;33529;49.242;8.670;2022-09-17T09:08:14;2.42;;;1.38;;
47764;SDS011;33529;49.242;8.670;2022-09-17T09:11:03;1.92;;;0.65;;
47764;SDS011;33529;49.242;8.670;2022-09-17T09:13:46;1.00;;;0.60;;
47764;SDS011;33529;49.242;8.670;2022-09-17T09:16:17;1.20;;;0.63;;
47764;SDS011;33529;49.242;8.670;2022-09-17T09:18:47;1.20;;;0.60;;
47764;SDS011;33529;49.242;8.670;2022-09-17T09:23:54;0.88;;;0.50;;
47764;SDS011;33529;49.242;8.670;2022-09-17T09:27:13;0.45;;;0.40;;
47764;SDS011;33529;49.242;8.670;2022-09-17T09:34:41;0.60;;;0.45;;
47764;SDS011;33529;49.242;8.670;2022-09-17T09:39:43;0.40;;;0.40;;
47764;SDS011;33529;49.242;8.670;2022-09-17T09:42:18;2.72;;;0.55;;
47764;SDS011;33529;49.242;8.670;2022-09-17T09:45:00;0.30;;;0.30;;
47764;SDS011;33529;49.242;8.670;2022-09-17T09:50:28;0.98;;;0.52;;
47764;SDS011;33529;49.242;8.670;2022-09-17T09:53:25;0.80;;;0.40;;
47764;SDS011;33529;49.242;8.670;2022-09-17T09:56:10;0.88;;;0.50;;
47764;SDS011;33529;49.242;8.670;2022-09-17T09:59:00;1.77;;;0.75;;
47764;SDS011;33529;49.242;8.670;2022-09-17T10:01:28;1.08;;;0.50;;
47764;SDS011;33529;49.242;8.670;2022-09-17T10:03:58;0.68;;;0.50;;
47764;SDS011;33529;49.242;8.670;2022-09-17T10:06:27;1.50;;;0.60;;
47764;SDS011;33529;49.242;8.670;2022-09-17T10:11:26;1.10;;;0.30;;
47764;SDS011;33529;49.242;8.670;2022-09-17T10:14:37;1.17;;;0.43;;
47764;SDS011;33529;49.242;8.670;2022-09-17T10:16:49;0.98;;;0.45;;
47764;SDS011;33529;49.242;8.670;2022-09-17T10:19:35;1.15;;;1.02;;
47764;SDS011;33529;49.242;8.670;2022-09-17T10:24:47;0.63;;;0.45;;
47764;SDS011;33529;49.242;8.670;2022-09-17T10:27:16;2.35;;;0.70;;
47764;SDS011;33529;49.242;8.670;2022-09-17T10:29:45;1.20;;;1.00;;
47764;SDS011;33529;49.242;8.670;2022-09-17T10:32:18;2.45;;;0.70;;
47764;SDS011;33529;49.242;8.670;2022-09-17T10:37:52;1.10;;;0.70;;
47764;SDS011;33529;49.242;8.670;2022-09-17T10:42:47;0.68;;;0.40;;
47764;SDS011;33529;49.242;8.670;2022-09-17T10:45:28;2.53;;;0.73;;
47764;SDS011;33529;49.242;8.670;2022-09-17T10:47:57;0.85;;;0.47;;
47764;SDS011;33529;49.242;8.670;2022-09-17T10:50:26;1.98;;;0.30;;
47764;SDS011;33529;49.242;8.670;2022-09-17T10:52:59;0.55;;;0.35;;
47764;SDS011;33529;49.242;8.670;2022-09-17T11:03:29;0.70;;;0.38;;
47764;SDS011;33529;49.242;8.670;2022-09-17T11:15:05;2.30;;;0.40;;
47764;SDS011;33529;49.242;8.670;2022-09-17T11:39:55;0.90;;;0.50;;
47764;SDS011;33529;49.242;8.670;2022-09-17T11:42:41;2.88;;;0.68;;
47764;SDS011;33529;49.242;8.670;2022-09-17T11:45:28;1.10;;;0.73;;
47764;SDS011;33529;49.242;8.670;2022-09-17T11:48:12;0.30;;;0.30;;
47764;SDS011;33529;49.242;8.670;2022-09-17T11:50:44;1.83;;;0.50;;
47764;SDS011;33529;49.242;8.670;2022-09-17T11:53:29;0.85;;;0.47;;
47764;SDS011;33529;49.242;8.670;2022-09-17T11:56:02;0.57;;;0.25;;
47764;SDS011;33529;49.242;8.670;2022-09-17T11:58:52;1.20;;;0.57;;
47764;SDS011;33529;49.242;8.670;2022-09-17T12:01:37;2.10;;;0.43;;
47764;SDS011;33529;49.242;8.670;2022-09-17T12:04:27;1.50;;;0.73;;
47764;SDS011;33529;49.242;8.670;2022-09-17T12:07:16;0.65;;;0.30;;
47764;SDS011;33529;49.242;8.670;2022-09-17T12:09:56;0.22;;;0.17;;
47764;SDS011;33529;49.242;8.670;2022-09-17T12:12:42;1.08;;;0.50;;
47764;SDS011;33529;49.242;8.670;2022-09-17T12:15:19;0.55;;;0.20;;
47764;SDS011;33529;49.242;8.670;2022-09-17T12:17:58;1.23;;;0.65;;
47764;SDS011;33529;49.242;8.670;2022-09-17T12:20:48;0.57;;;0.30;;
47764;SDS011;33529;49.242;8.670;2022-09-17T12:23:31;1.50;;;0.57;;
47764;SDS011;33529;49.242;8.670;2022-09-17T12:28:41;0.40;;;0.20;;
47764;SDS011;33529;49.242;8.670;2022-09-17T12:31:20;0.93;;;0.30;;
47764;SDS011;33529;49.242;8.670;2022-09-17T12:33:58;1.13;;;0.52;;
47764;SDS011;33529;49.242;8.670;2022-09-17T12:36:56;1.75;;;0.25;;
47764;SDS011;33529;49.242;8.670;2022-09-17T12:39:42;0.70;;;0.38;;
47764;SDS011;33529;49.242;8.670;2022-09-17T12:42:28;0.68;;;0.30;;
47764;SDS011;33529;49.242;8.670;2022-09-17T12:45:17;0.57;;;0.20;;
47764;SDS011;33529;49.242;8.670;2022-09-17T12:48:00;0.65;;;0.32;;
47764;SDS011;33529;49.242;8.670;2022-09-17T12:50:54;0.40;;;0.30;;
47764;SDS011;33529;49.242;8.670;2022-09-17T12:53:41;0.20;;;0.20;;
47764;SDS011;33529;49.242;8.670;2022-09-17T12:56:27;0.30;;;0.30;;
47764;SDS011;33529;49.242;8.670;2022-09-17T12:59:07;0.20;;;0.20;;
47764;SDS011;33529;49.242;8.670;2022-09-17T13:01:39;1.25;;;0.80;;
47764;SDS011;33529;49.242;8.670;2022-09-17T13:12:46;0.30;;;0.30;;
47764;SDS011;33529;49.242;8.670;2022-09-17T13:15:38;0.30;;;0.30;;
47764;SDS011;33529;49.242;8.670;2022-09-17T13:18:36;0.40;;;0.22;;
47764;SDS011;33529;49.242;8.670;2022-09-17T13:21:33;0.80;;;0.30;;
47764;SDS011;33529;49.242;8.670;2022-09-17T13:24:16;0.30;;;0.20;;
47764;SDS011;33529;49.242;8.670;2022-09-17T13:26:45;0.25;;;0.22;;
47764;SDS011;33529;49.242;8.670;2022-09-17T13:29:12;0.63;;;0.40;;
47764;SDS011;33529;49.242;8.670;2022-09-17T13:40:19;0.82;;;0.30;;
47764;SDS011;33529;49.242;8.670;2022-09-17T13:42:55;0.82;;;0.20;;
47764;SDS011;33529;49.242;8.670;2022-09-17T13:45:23;0.40;;;0.35;;
47764;SDS011;33529;49.242;8.670;2022-09-17T13:50:24;0.50;;;0.30;;
47764;SDS011;33529;49.242;8.670;2022-09-17T13:52:54;0.45;;;0.30;;
47764;SDS011;33529;49.242;8.670;2022-09-17T14:00:49;0.43;;;0.30;;
47764;SDS011;33529;49.242;8.670;2022-09-17T14:13:55;0.50;;;0.30;;
47764;SDS011;33529;49.242;8.670;2022-09-17T14:24:28;0.52;;;0.40;;
47764;SDS011;33529;49.242;8.670;2022-09-17T14:30:20;0.73;;;0.40;;
47764;SDS011;33529;49.242;8.670;2022-09-17T14:38:17;0.38;;;0.30;;
47764;SDS011;33529;49.242;8.670;2022-09-17T14:40:49;0.60;;;0.30;;
47764;SDS011;33529;49.242;8.670;2022-09-17T14:43:44;0.20;;;0.20;;
47764;SDS011;33529;49.242;8.670;2022-09-17T14:46:28;0.60;;;0.38;;
47764;SDS011;33529;49.242;8.670;2022-09-17T14:51:59;0.82;;;0.40;;
47764;SDS011;33529;49.242;8.670;2022-09-17T14:54:31;0.25;;;0.20;;
47764;SDS011;33529;49.242;8.670;2022-09-17T14:59:53;1.05;;;0.38;;
47764;SDS011;33529;49.242;8.670;2022-09-17T15:02:28;1.35;;;0.55;;
47764;SDS011;33529;49.242;8.670;2022-09-17T15:04:57;0.30;;;0.30;;
47764;SDS011;33529;49.242;8.670;2022-09-17T15:07:24;0.98;;;0.60;;
47764;SDS011;33529;49.242;8.670;2022-09-17T15:09:52;0.65;;;0.30;;
47764;SDS011;33529;49.242;8.670;2022-09-17T15:12:22;0.95;;;0.38;;
47764;SDS011;33529;49.242;8.670;2022-09-17T15:14:54;0.38;;;0.28;;
47764;SDS011;33529;49.242;8.670;2022-09-17T15:17:22;0.63;;;0.30;;
47764;SDS011;33529;49.242;8.670;2022-09-17T15:19:54;0.45;;;0.30;;
47764;SDS011;33529;49.242;8.670;2022-09-17T15:22:26;0.82;;;0.35;;
47764;SDS011;33529;49.242;8.670;2022-09-17T15:27:33;0.55;;;0.30;;
47764;SDS011;33529;49.242;8.670;2022-09-17T15:30:16;0.50;;;0.40;;
47764;SDS011;33529;49.242;8.670;2022-09-17T15:32:54;0.40;;;0.20;;
47764;SDS011;33529;49.242;8.670;2022-09-17T15:35:25;1.05;;;0.47;;
47764;SDS011;33529;49.242;8.670;2022-09-17T15:37:58;1.10;;;0.60;;
47764;SDS011;33529;49.242;8.670;2022-09-17T15:40:48;0.55;;;0.30;;
47764;SDS011;33529;49.242;8.670;2022-09-17T15:43:26;0.47;;;0.20;;
47764;SDS011;33529;49.242;8.670;2022-09-17T15:46:13;0.32;;;0.32;;
47764;SDS011;33529;49.242;8.670;2022-09-17T15:48:58;0.85;;;0.40;;
47764;SDS011;33529;49.242;8.670;2022-09-17T15:51:31;1.27;;;0.40;;
47764;SDS011;33529;49.242;8.670;2022-09-17T15:54:01;0.50;;;0.30;;
47764;SDS011;33529;49.242;8.670;2022-09-17T15:56:32;0.30;;;0.30;;
47764;SDS011;33529;49.242;8.670;2022-09-17T15:59:22;0.98;;;0.38;;
47764;SDS011;33529;49.242;8.670;2022-09-17T16:01:53;0.53;;;0.40;;
47764;SDS011;33529;49.242;8.670;2022-09-17T16:04:23;2.17;;;1.02;;
47764;SDS011;33529;49.242;8.670;2022-09-17T16:06:57;0.40;;;0.20;;
47764;SDS011;33529;49.242;8.670;2022-09-17T16:12:17;0.88;;;0.38;;
47764;SDS011;33529;49.242;8.670;2022-09-17T16:14:50;0.55;;;0.20;;
47764;SDS011;33529;49.242;8.670;2022-09-17T16:19:58;0.88;;;0.30;;
47764;SDS011;33529;49.242;8.670;2022-09-17T16:22:31;0.98;;;0.40;;
47764;SDS011;33529;49.242;8.670;2022-09-17T16:24:58;0.30;;;0.28;;
47764;SDS011;33529;49.242;8.670;2022-09-17T16:27:26;0.60;;;0.30;;
47764;SDS011;33529;49.242;8.670;2022-09-17T16:30:00;0.45;;;0.30;;
47764;SDS011;33529;49.242;8.670;2022-09-17T16:32:30;0.32;;;0.30;;
47764;SDS011;33529;49.242;8.670;2022-09-17T16:34:56;0.50;;;0.40;;
47764;SDS011;33529;49.242;8.670;2022-09-17T16:37:23;0.52;;;0.30;;
47764;SDS011;33529;49.242;8.670;2022-09-17T16:39:50;0.95;;;0.30;;
47764;SDS011;33529;49.242;8.670;2022-09-17T16:42:18;0.47;;;0.30;;
47764;SDS011;33529;49.242;8.670;2022-09-17T16:44:45;0.60;;;0.32;;
47764;SDS011;33529;49.242;8.670;2022-09-17T16:47:11;0.57;;;0.40;;
47764;SDS011;33529;49.242;8.670;2022-09-17T16:49:38;0.35;;;0.30;;
47764;SDS011;33529;49.242;8.670;2022-09-17T16:52:05;0.52;;;0.38;;
47764;SDS011;33529;49.242;8.670;2022-09-17T16:54:32;0.50;;;0.40;;
47764;SDS011;33529;49.242;8.670;2022-09-17T16:56:58;0.40;;;0.25;;
47764;SDS011;33529;49.242;8.670;2022-09-17T16:59:26;0.20;;;0.20;;
47764;SDS011;33529;49.242;8.670;2022-09-17T17:01:53;0.75;;;0.50;;
47764;SDS011;33529;49.242;8.670;2022-09-17T17:04:19;0.35;;;0.30;;
47764;SDS011;33529;49.242;8.670;2022-09-17T17:06:46;0.38;;;0.28;;
47764;SDS011;33529;49.242;8.670;2022-09-17T17:09:13;0.63;;;0.30;;
47764;SDS011;33529;49.242;8.670;2022-09-17T17:11:40;1.35;;;0.35;;
47764;SDS011;33529;49.242;8.670;2022-09-17T17:14:07;1.08;;;0.40;;
47764;SDS011;33529;49.242;8.670;2022-09-17T17:16:39;2.88;;;0.70;;
47764;SDS011;33529;49.242;8.670;2022-09-17T17:19:08;1.30;;;0.47;;
47764;SDS011;33529;49.242;8.670;2022-09-17T17:21:35;0.90;;;0.40;;
47764;SDS011;33529;49.242;8.670;2022-09-17T17:24:02;0.50;;;0.30;;
47764;SDS011;33529;49.242;8.670;2022-09-17T17:26:32;0.60;;;0.30;;
47764;SDS011;33529;49.242;8.670;2022-09-17T17:28:59;0.40;;;0.30;;
47764;SDS011;33529;49.242;8.670;2022-09-17T17:31:27;0.50;;;0.30;;
47764;SDS011;33529;49.242;8.670;2022-09-17T17:33:54;1.55;;;0.50;;
47764;SDS011;33529;49.242;8.670;2022-09-17T17:36:21;0.57;;;0.32;;
47764;SDS011;33529;49.242;8.670;2022-09-17T17:38:47;0.30;;;0.30;;
47764;SDS011;33529;49.242;8.670;2022-09-17T17:41:15;0.20;;;0.20;;
47764;SDS011;33529;49.242;8.670;2022-09-17T17:43:43;0.25;;;0.22;;
47764;SDS011;33529;49.242;8.670;2022-09-17T17:46:10;0.30;;;0.28;;
47764;SDS011;33529;49.242;8.670;2022-09-17T17:48:37;0.40;;;0.30;;
47764;SDS011;33529;49.242;8.670;2022-09-17T17:51:05;1.05;;;0.80;;
47764;SDS011;33529;49.242;8.670;2022-09-17T17:53:33;0.45;;;0.30;;
47764;SDS011;33529;49.242;8.670;2022-09-17T17:56:02;0.60;;;0.40;;
47764;SDS011;33529;49.242;8.670;2022-09-17T17:58:31;0.30;;;0.30;;
47764;SDS011;33529;49.242;8.670;2022-09-17T18:00:58;0.65;;;0.30;;
47764;SDS011;33529;49.242;8.670;2022-09-17T18:03:26;0.30;;;0.30;;
47764;SDS011;33529;49.242;8.670;2022-09-17T18:05:53;1.10;;;0.40;;
47764;SDS011;33529;49.242;8.670;2022-09-17T18:08:23;0.20;;;0.20;;
47764;SDS011;33529;49.242;8.670;2022-09-17T18:10:51;1.17;;;0.40;;
47764;SDS011;33529;49.242;8.670;2022-09-17T18:13:23;0.30;;;0.30;;
47764;SDS011;33529;49.242;8.670;2022-09-17T18:15:53;0.85;;;0.40;;
47764;SDS011;33529;49.242;8.670;2022-09-17T18:18:22;1.27;;;0.68;;
47764;SDS011;33529;49.242;8.670;2022-09-17T18:20:50;0.30;;;0.30;;
47764;SDS011;33529;49.242;8.670;2022-09-17T18:23:21;1.27;;;0.47;;
47764;SDS011;33529;49.242;8.670;2022-09-17T18:25:51;0.77;;;0.40;;
47764;SDS011;33529;49.242;8.670;2022-09-17T18:28:22;0.50;;;0.30;;
47764;SDS011;33529;49.242;8.670;2022-09-17T18:30:49;0.47;;;0.40;;
47764;SDS011;33529;49.242;8.670;2022-09-17T18:33:17;0.22;;;0.22;;
47764;SDS011;33529;49.242;8.670;2022-09-17T18:35:52;0.32;;;0.20;;
47764;SDS011;33529;49.242;8.670;2022-09-17T18:38:22;0.60;;;0.35;;
47764;SDS011;33529;49.242;8.670;2022-09-17T18:40:49;0.45;;;0.35;;
47764;SDS011;33529;49.242;8.670;2022-09-17T18:43:17;0.68;;;0.30;;